Time;durP1;ratioP1;P1;durP2;ratioP2;P2;SDS_P1;SDS_P2;PMS_P1;PMS_P2;Temp;Humidity;BMP_temperature;BMP_pressure;BME280_temperature;BME280_humidity;BME280_pressure;Samples;Min_cycle;Max_cycle;Signal;HPM_P1;HPM_P2
2022/07/01 00:00:50;;;;;;;;;;;;;;;;;;10416967;28;19925;-64
2022/07/01 00:05:52;;;;;;;;;;;;;;;;;;10416849;28;20019;-64
2022/07/01 00:10:54;;;;;;;;;;;;;;;;;;10416852;28;19964;-64
2022/07/01 00:15:56;;;;;;;;;;;;;;;;;;10416551;28;19925;-64
2022/07/01 00:21:00;;;;;;;;;;;;;;;;;;10415905;28;19925;-64
2022/07/01 00:26:02;;;;;;;;;;;;;;;;;;10416447;28;19961;-64
2022/07/01 00:31:05;;;;;;;;;;;;;;;;;;10416334;28;20007;-64
2022/07/01 00:36:07;;;;;;;;;;;;;;;;;;10416486;28;19971;-64
2022/07/01 00:41:09;;;;;;;;;;;;;;;;;;10415732;28;20011;-65
2022/07/01 00:46:11;;;;;;;;;;;;;;;;;;10416100;28;19980;-64
2022/07/01 00:51:13;;;;;;;;;;;;;;;;;;10421028;28;19952;-64
2022/07/01 00:56:15;;;;;;;;;;;;;;;;;;10423487;28;19929;-64
2022/07/01 01:01:18;;;;;;;;;;;;;;;;;;10423844;28;20399;-64
2022/07/01 01:06:20;;;;;;;;;;;;;;;;;;10423640;28;19972;-64
2022/07/01 01:11:22;;;;;;;;;;;;;;;;;;10423215;28;19948;-65
2022/07/01 01:16:25;;;;;;;;;;;;;;;;;;10423306;28;19935;-64
2022/07/01 01:21:28;;;;;;;;;;;;;;;;;;10423225;28;19925;-64
2022/07/01 01:26:30;;;;;;;;;;;;;;;;;;10423280;28;19925;-65
2022/07/01 01:31:33;;;;;;;;;;;;;;;;;;10423007;28;19932;-64
2022/07/01 01:36:36;;;;;;;;;;;;;;;;;;10422450;28;19931;-65
2022/07/01 01:41:38;;;;;;;;;;;;;;;;;;10422584;28;19925;-65
2022/07/01 01:46:40;;;;;;;;;;;;;;;;;;10422259;28;19926;-65
2022/07/01 01:51:42;;;;;;;;;;;;;;;;;;10422797;28;19976;-65
2022/07/01 01:56:44;;;;;;;;;;;;;;;;;;10422418;28;20000;-65
2022/07/01 02:01:47;;;;;;;;;;;;;;;;;;10420231;28;20304;-64
2022/07/01 02:06:49;;;;;;;;;;;;;;;;;;10421050;28;19932;-64
2022/07/01 02:16:59;;;;;;;;;;;;;;;;;;10338241;28;19929;-63
2022/07/01 02:22:01;;;;;;;;;;;;;;;;;;10339687;28;19926;-63
2022/07/01 02:27:03;;;;;;;;;;;;;;;;;;10338516;28;19925;-63
2022/07/01 02:32:05;;;;;;;;;;;;;;;;;;10339377;28;19926;-63
2022/07/01 02:37:08;;;;;;;;;;;;;;;;;;10338347;28;19952;-63
2022/07/01 02:42:26;;;;;;;;;;;;;;;;;;10338852;28;19926;-63
2022/07/01 02:47:28;;;;;;;;;;;;;;;;;;10337886;28;20364;-63
2022/07/01 02:52:32;;;;;;;;;;;;;;;;;;10338527;28;19926;-63
2022/07/01 02:57:34;;;;;;;;;;;;;;;;;;10337522;28;19932;-63
2022/07/01 03:02:36;;;;;;;;;;;;;;;;;;10337501;28;20378;-63
2022/07/01 03:07:38;;;;;;;;;;;;;;;;;;10337094;28;20376;-63
2022/07/01 03:12:41;;;;;;;;;;;;;;;;;;10337378;28;19926;-63
2022/07/01 03:17:43;;;;;;;;;;;;;;;;;;10337795;28;19926;-64
2022/07/01 03:22:45;;;;;;;;;;;;;;;;;;10336606;28;20381;-64
2022/07/01 03:27:47;;;;;;;;;;;;;;;;;;10336308;28;20374;-64
2022/07/01 03:32:49;;;;;;;;;;;;;;;;;;10337097;28;19925;-64
2022/07/01 03:37:52;;;;;;;;;;;;;;;;;;10335974;28;20285;-64
2022/07/01 03:42:54;;;;;;;;;;;;;;;;;;10336172;28;19933;-64
2022/07/01 03:47:56;;;;;;;;;;;;;;;;;;10335488;28;20385;-64
2022/07/01 03:58:19;;;;;;;;;;;;;;;;;;10335700;28;19933;-64
2022/07/01 04:03:21;;;;;;;;;;;;;;;;;;10334966;28;19926;-64
2022/07/01 04:08:23;;;;;;;;;;;;;;;;;;10331119;28;20404;-64
2022/07/01 04:13:25;;;;;;;;;;;;;;;;;;10335127;28;19926;-64
2022/07/01 04:18:31;;;;;;;;;;;;;;;;;;10334785;28;20009;-64
2022/07/01 04:23:33;;;;;;;;;;;;;;;;;;10334361;28;19926;-64
2022/07/01 04:28:35;;;;;;;;;;;;;;;;;;10335086;28;19950;-64
2022/07/01 04:33:37;;;;;;;;;;;;;;;;;;10334160;28;19930;-64
2022/07/01 04:38:39;;;;;;;;;;;;;;;;;;10334162;28;20296;-64
2022/07/01 04:43:41;;;;;;;;;;;;;;;;;;10334283;28;19933;-64
2022/07/01 04:48:44;;;;;;;;;;;;;;;;;;10334134;28;19926;-64
2022/07/01 04:53:46;;;;;;;;;;;;;;;;;;10332592;28;19926;-64
2022/07/01 04:58:48;;;;;;;;;;;;;;;;;;10333475;28;19929;-64
2022/07/01 05:03:50;;;;;;;;;;;;;;;;;;10333874;28;19933;-64
2022/07/01 05:08:52;;;;;;;;;;;;;;;;;;10333613;28;20341;-64
2022/07/01 05:13:54;;;;;;;;;;;;;;;;;;10332563;28;19957;-64
2022/07/01 05:24:17;;;;;;;;;;;;;;;;;;10333095;28;20388;-64
2022/07/01 05:29:19;;;;;;;;;;;;;;;;;;10333838;28;19925;-64
2022/07/01 05:34:21;;;;;;;;;;;;;;;;;;10333703;28;19933;-64
2022/07/01 05:39:24;;;;;;;;;;;;;;;;;;10339988;28;20385;-64
2022/07/01 05:44:27;;;;;;;;;;;;;;;;;;10341031;28;19936;-64
2022/07/01 05:49:29;;;;;;;;;;;;;;;;;;10340341;28;20373;-64
2022/07/01 05:54:31;;;;;;;;;;;;;;;;;;10340126;28;20296;-64
2022/07/01 05:59:33;;;;;;;;;;;;;;;;;;10340595;28;19932;-64
2022/07/01 06:04:35;;;;;;;;;;;;;;;;;;10340385;28;19925;-64
2022/07/01 06:09:37;;;;;;;;;;;;;;;;;;10340767;28;19936;-64
2022/07/01 06:14:39;;;;;;;;;;;;;;;;;;10339878;28;19926;-64
2022/07/01 06:19:42;;;;;;;;;;;;;;;;;;10339823;28;19980;-64
2022/07/01 06:24:44;;;;;;;;;;;;;;;;;;10339588;28;19932;-64
2022/07/01 06:29:46;;;;;;;;;;;;;;;;;;10339553;28;19930;-64
2022/07/01 06:34:49;;;;;;;;;;;;;;;;;;10338630;28;19925;-65
2022/07/01 06:39:51;;;;;;;;;;;;;;;;;;10354072;28;19926;-64
2022/07/01 06:44:53;;;;;;;;;;;;;;;;;;10338786;28;19926;-64
2022/07/01 06:49:55;;;;;;;;;;;;;;;;;;10337720;28;19925;-64
2022/07/01 06:55:00;;;;;;;;;;;;;;;;;;10337845;28;20376;-64
2022/07/01 07:00:03;;;;;;;;;;;;;;;;;;10338292;28;19925;-64
2022/07/01 07:05:05;;;;;;;;;;;;;;;;;;10337397;28;20293;-64
2022/07/01 07:10:07;;;;;;;;;;;;;;;;;;10337859;28;19930;-64
2022/07/01 07:15:09;;;;;;;;;;;;;;;;;;10337077;28;19926;-64
2022/07/01 07:20:11;;;;;;;;;;;;;;;;;;10337434;28;19926;-64
2022/07/01 07:25:13;;;;;;;;;;;;;;;;;;10336672;28;19925;-64
2022/07/01 07:30:16;;;;;;;;;;;;;;;;;;10336441;28;20373;-64
2022/07/01 07:35:18;;;;;;;;;;;;;;;;;;10336911;28;19930;-64
2022/07/01 07:40:20;;;;;;;;;;;;;;;;;;10336634;28;19932;-64
2022/07/01 07:45:22;;;;;;;;;;;;;;;;;;10336490;28;19940;-64
2022/07/01 07:50:24;;;;;;;;;;;;;;;;;;10335771;28;19933;-64
2022/07/01 07:55:27;;;;;;;;;;;;;;;;;;10336226;28;19926;-64
2022/07/01 08:00:30;;;;;;;;;;;;;;;;;;10335299;28;19936;-65
2022/07/01 08:05:32;;;;;;;;;;;;;;;;;;10335272;28;20277;-64
2022/07/01 08:10:34;;;;;;;;;;;;;;;;;;10335072;28;20289;-64
2022/07/01 08:15:36;;;;;;;;;;;;;;;;;;10335203;28;19932;-65
2022/07/01 08:20:38;;;;;;;;;;;;;;;;;;10335286;28;19937;-65
2022/07/01 08:25:40;;;;;;;;;;;;;;;;;;10335211;28;19925;-64
2022/07/01 08:30:42;;;;;;;;;;;;;;;;;;10335038;28;19932;-65
2022/07/01 08:35:44;;;;;;;;;;;;;;;;;;10334939;28;19932;-64
2022/07/01 08:40:46;;;;;;;;;;;;;;;;;;10334674;28;19932;-64
2022/07/01 08:45:49;;;;;;;;;;;;;;;;;;10334566;28;19933;-64
2022/07/01 08:50:51;;;;;;;;;;;;;;;;;;10333940;28;20000;-65
2022/07/01 09:01:14;;;;;;;;;;;;;;;;;;10334758;28;19930;-65
2022/07/01 09:06:16;;;;;;;;;;;;;;;;;;10334330;28;19932;-65
2022/07/01 09:11:18;;;;;;;;;;;;;;;;;;10337588;28;19936;-65
2022/07/01 09:16:20;;;;;;;;;;;;;;;;;;10341591;28;19925;-64
2022/07/01 09:21:22;;;;;;;;;;;;;;;;;;10342024;28;19992;-64
2022/07/01 09:26:27;;;;;;;;;;;;;;;;;;10341274;28;20373;-64
2022/07/01 09:31:29;;;;;;;;;;;;;;;;;;10341112;28;20373;-65
2022/07/01 09:36:31;;;;;;;;;;;;;;;;;;10356643;28;19957;-64
2022/07/01 09:41:33;;;;;;;;;;;;;;;;;;10341333;28;19926;-65
2022/07/01 09:46:35;;;;;;;;;;;;;;;;;;10341186;28;19926;-64
2022/07/01 09:51:37;;;;;;;;;;;;;;;;;;10340390;28;19926;-65
2022/07/01 09:56:39;;;;;;;;;;;;;;;;;;10340823;28;19942;-64
2022/07/01 10:01:41;;;;;;;;;;;;;;;;;;10340505;28;19932;-65
2022/07/01 10:06:43;;;;;;;;;;;;;;;;;;10340371;28;20277;-65
2022/07/01 10:11:46;;;;;;;;;;;;;;;;;;10339833;28;20381;-65
2022/07/01 10:16:50;;;;;;;;;;;;;;;;;;10339754;28;20381;-65
2022/07/01 10:21:57;;;;;;;;;;;;;;;;;;10339052;28;19926;-65
2022/07/01 10:27:00;;;;;;;;;;;;;;;;;;10339632;28;19925;-65
2022/07/01 10:32:02;;;;;;;;;;;;;;;;;;10339483;28;19933;-65
2022/07/01 10:37:06;;;;;;;;;;;;;;;;;;10339152;28;19973;-65
2022/07/01 10:42:09;;;;;;;;;;;;;;;;;;10354097;28;19930;-65
2022/07/01 10:47:19;;;;;;;;;;;;;;;;;;10339410;28;19932;-65
2022/07/01 10:52:21;;;;;;;;;;;;;;;;;;10338703;28;19926;-65
2022/07/01 10:57:23;;;;;;;;;;;;;;;;;;10337860;28;20285;-64
2022/07/01 11:02:25;;;;;;;;;;;;;;;;;;10338089;28;20292;-65
2022/07/01 11:07:27;;;;;;;;;;;;;;;;;;10337410;28;20388;-65
2022/07/01 11:12:29;;;;;;;;;;;;;;;;;;10352583;28;19926;-65
2022/07/01 11:17:31;;;;;;;;;;;;;;;;;;10337674;28;19926;-66
2022/07/01 11:22:34;;;;;;;;;;;;;;;;;;10337385;28;19932;-64
2022/07/01 11:27:36;;;;;;;;;;;;;;;;;;10336688;28;20293;-65
2022/07/01 11:32:38;;;;;;;;;;;;;;;;;;10336369;28;19934;-64
2022/07/01 11:43:01;;;;;;;;;;;;;;;;;;10335976;28;19973;-65
2022/07/01 11:48:03;;;;;;;;;;;;;;;;;;10336489;28;19926;-65
2022/07/01 11:53:05;;;;;;;;;;;;;;;;;;10336290;28;19932;-64
2022/07/01 11:58:07;;;;;;;;;;;;;;;;;;10336110;28;19932;-64
2022/07/01 12:03:10;;;;;;;;;;;;;;;;;;10335243;28;19932;-64
2022/07/01 12:08:12;;;;;;;;;;;;;;;;;;10335625;28;20432;-64
2022/07/01 12:13:14;;;;;;;;;;;;;;;;;;10350833;28;19933;-64
2022/07/01 12:18:17;;;;;;;;;;;;;;;;;;10335487;28;19926;-65
2022/07/01 12:23:19;;;;;;;;;;;;;;;;;;10335366;28;20369;-64
2022/07/01 12:28:21;;;;;;;;;;;;;;;;;;10334532;28;19926;-65
2022/07/01 12:33:23;;;;;;;;;;;;;;;;;;10334396;28;19932;-65
2022/07/01 12:38:25;;;;;;;;;;;;;;;;;;10334269;28;19932;-64
2022/07/01 12:43:29;;;;;;;;;;;;;;;;;;10334095;28;20398;-64
2022/07/01 12:48:31;;;;;;;;;;;;;;;;;;10334330;28;19932;-65
2022/07/01 12:53:33;;;;;;;;;;;;;;;;;;10334567;28;19932;-65
2022/07/01 12:58:35;;;;;;;;;;;;;;;;;;10333871;28;19926;-65
2022/07/01 13:03:37;;;;;;;;;;;;;;;;;;10334308;28;19926;-65
2022/07/01 13:08:39;;;;;;;;;;;;;;;;;;10334803;28;20004;-65
2022/07/01 13:13:41;;;;;;;;;;;;;;;;;;10333832;28;19933;-65
2022/07/01 13:18:44;;;;;;;;;;;;;;;;;;10334118;28;19933;-65
2022/07/01 13:23:46;;;;;;;;;;;;;;;;;;10333365;28;20567;-65
2022/07/01 13:28:48;;;;;;;;;;;;;;;;;;10333394;28;19934;-64
2022/07/01 13:33:50;;;;;;;;;;;;;;;;;;10333868;28;19926;-65
2022/07/01 13:38:52;;;;;;;;;;;;;;;;;;10333801;28;19925;-64
2022/07/01 13:43:54;;;;;;;;;;;;;;;;;;10333640;28;20026;-64
2022/07/01 13:48:56;;;;;;;;;;;;;;;;;;10332969;28;20305;-65
2022/07/01 13:53:58;;;;;;;;;;;;;;;;;;10332877;28;20403;-64
2022/07/01 13:59:00;;;;;;;;;;;;;;;;;;10338055;28;19926;-65
2022/07/01 14:04:02;;;;;;;;;;;;;;;;;;10340496;28;19932;-65
2022/07/01 14:09:04;;;;;;;;;;;;;;;;;;10340393;28;19926;-65
2022/07/01 14:14:06;;;;;;;;;;;;;;;;;;10339618;28;20277;-64
2022/07/01 14:19:09;;;;;;;;;;;;;;;;;;10340023;28;19967;-62
2022/07/01 14:24:11;;;;;;;;;;;;;;;;;;10339767;28;19926;-64
2022/07/01 14:29:13;;;;;;;;;;;;;;;;;;10428166;22;20318;-67
2022/07/01 14:34:15;;;;;;;;;;;;;;;;;;10503584;28;19931;-67
2022/07/01 14:39:17;;;;;;;;;;;;;;;;;;10503396;28;19936;-66
2022/07/01 14:44:19;;;;;;;;;;;;;;;;;;10503147;28;19925;-66
2022/07/01 14:49:23;;;;;;;;;;;;;;;;;;10502357;28;20314;-66
2022/07/01 14:54:25;;;;;;;;;;;;;;;;;;10502208;28;20438;-66
2022/07/01 14:59:27;;;;;;;;;;;;;;;;;;10502594;28;19998;-66
2022/07/01 15:04:29;;;;;;;;;;;;;;;;;;10502273;28;19931;-66
2022/07/01 15:09:31;;;;;;;;;;;;;;;;;;10501970;28;19925;-66
2022/07/01 15:14:33;;;;;;;;;;;;;;;;;;10501763;28;19947;-66
2022/07/01 15:19:37;;;;;;;;;;;;;;;;;;10501731;28;19924;-66
2022/07/01 15:24:40;;;;;;;;;;;;;;;;;;10500823;28;19931;-66
2022/07/01 15:29:42;;;;;;;;;;;;;;;;;;10500721;28;20011;-66
2022/07/01 15:34:46;;;;;;;;;;;;;;;;;;10501074;28;19931;-66
2022/07/01 15:39:48;;;;;;;;;;;;;;;;;;10500914;28;19928;-65
2022/07/01 15:44:59;;;;;;;;;;;;;;;;;;10500026;28;19925;-65
2022/07/01 15:50:01;;;;;;;;;;;;;;;;;;10501058;28;19924;-65
2022/07/01 15:55:03;;;;;;;;;;;;;;;;;;10500340;28;19932;-66
2022/07/01 16:00:05;;;;;;;;;;;;;;;;;;10500226;28;19924;-65
2022/07/01 16:05:07;;;;;;;;;;;;;;;;;;10499277;28;19925;-66
2022/07/01 16:10:09;;;;;;;;;;;;;;;;;;10499289;28;19931;-65
2022/07/01 16:15:11;;;;;;;;;;;;;;;;;;10499628;28;19925;-65
2022/07/01 16:20:13;;;;;;;;;;;;;;;;;;10498302;28;20366;-65
2022/07/01 16:25:15;;;;;;;;;;;;;;;;;;10499004;28;19931;-65
2022/07/01 16:30:17;;;;;;;;;;;;;;;;;;10498871;28;19935;-65
2022/07/01 16:35:21;;;;;;;;;;;;;;;;;;10498475;28;20389;-65
2022/07/01 16:40:23;;;;;;;;;;;;;;;;;;10499049;28;19930;-65
2022/07/01 16:45:25;;;;;;;;;;;;;;;;;;10498853;28;19925;-65
2022/07/01 16:50:27;;;;;;;;;;;;;;;;;;10498716;28;20283;-65
2022/07/01 16:55:29;;;;;;;;;;;;;;;;;;10498657;28;19924;-65
2022/07/01 17:00:31;;;;;;;;;;;;;;;;;;10498488;28;19931;-65
2022/07/01 17:05:33;;;;;;;;;;;;;;;;;;10497782;28;19925;-65
2022/07/01 17:10:35;;;;;;;;;;;;;;;;;;10496640;28;19930;-65
2022/07/01 17:15:38;;;;;;;;;;;;;;;;;;10498211;28;19939;-64
2022/07/01 17:20:40;;;;;;;;;;;;;;;;;;10498815;28;19963;-65
2022/07/01 17:25:42;;;;;;;;;;;;;;;;;;10496361;28;19924;-64
2022/07/01 17:30:45;;;;;;;;;;;;;;;;;;10498937;28;19929;-65
2022/07/01 17:35:47;;;;;;;;;;;;;;;;;;10505769;28;19935;-65
2022/07/01 17:40:49;;;;;;;;;;;;;;;;;;10504012;28;19924;-65
2022/07/01 17:45:51;;;;;;;;;;;;;;;;;;10504701;28;20287;-65
2022/07/01 17:50:53;;;;;;;;;;;;;;;;;;10505133;28;19950;-64
2022/07/01 17:55:56;;;;;;;;;;;;;;;;;;10487306;28;19924;-65
2022/07/01 18:01:04;;;;;;;;;;;;;;;;;;10464036;28;19929;-64
2022/07/01 18:06:06;;;;;;;;;;;;;;;;;;10462627;28;19924;-64
2022/07/01 18:11:08;;;;;;;;;;;;;;;;;;10466707;28;19939;-64
2022/07/01 18:16:11;;;;;;;;;;;;;;;;;;10462435;28;20021;-64
2022/07/01 18:21:13;;;;;;;;;;;;;;;;;;10462756;28;19924;-64
2022/07/01 18:26:15;;;;;;;;;;;;;;;;;;10481010;28;19932;-64
2022/07/01 18:31:18;;;;;;;;;;;;;;;;;;10473175;28;19931;-64
2022/07/01 18:36:20;;;;;;;;;;;;;;;;;;10467030;28;19924;-64
2022/07/01 18:41:22;;;;;;;;;;;;;;;;;;10463156;28;20319;-64
2022/07/01 18:46:24;;;;;;;;;;;;;;;;;;10460442;28;20288;-63
2022/07/01 18:51:27;;;;;;;;;;;;;;;;;;10463752;28;19971;-64
2022/07/01 18:56:29;;;;;;;;;;;;;;;;;;10473654;28;20462;-64
2022/07/01 19:01:31;;;;;;;;;;;;;;;;;;10482227;28;19939;-64
2022/07/01 19:06:33;;;;;;;;;;;;;;;;;;10501624;28;20394;-64
2022/07/01 19:11:35;;;;;;;;;;;;;;;;;;10497857;28;19931;-64
2022/07/01 19:16:37;;;;;;;;;;;;;;;;;;10501870;28;19936;-63
2022/07/01 19:21:40;;;;;;;;;;;;;;;;;;10484676;28;20030;-63
2022/07/01 19:26:42;;;;;;;;;;;;;;;;;;10470564;28;19925;-63
2022/07/01 19:31:44;;;;;;;;;;;;;;;;;;10459100;28;19925;-63
2022/07/01 19:36:46;;;;;;;;;;;;;;;;;;10476263;28;19929;-63
2022/07/01 19:41:48;;;;;;;;;;;;;;;;;;10459529;28;19928;-64
2022/07/01 19:46:50;;;;;;;;;;;;;;;;;;10470735;28;19932;-63
2022/07/01 19:51:53;;;;;;;;;;;;;;;;;;10484328;28;19984;-64
2022/07/01 19:56:55;;;;;;;;;;;;;;;;;;10497110;28;19925;-64
2022/07/01 20:01:59;;;;;;;;;;;;;;;;;;10499465;28;20214;-63
2022/07/01 20:07:01;;;;;;;;;;;;;;;;;;10494333;28;20286;-63
2022/07/01 20:12:03;;;;;;;;;;;;;;;;;;10499840;28;19925;-64
2022/07/01 20:17:06;;;;;;;;;;;;;;;;;;10492416;28;19932;-63
2022/07/01 20:22:09;;;;;;;;;;;;;;;;;;10472969;28;19935;-63
2022/07/01 20:27:11;;;;;;;;;;;;;;;;;;10492969;28;20283;-63
2022/07/01 20:32:13;;;;;;;;;;;;;;;;;;10457523;28;20390;-63
2022/07/01 20:37:15;;;;;;;;;;;;;;;;;;10463930;28;20367;-63
2022/07/01 20:42:17;;;;;;;;;;;;;;;;;;10495506;28;19925;-63
2022/07/01 20:47:20;;;;;;;;;;;;;;;;;;10498212;28;20317;-63
2022/07/01 20:52:29;;;;;;;;;;;;;;;;;;10465694;28;19928;-63
2022/07/01 20:57:32;;;;;;;;;;;;;;;;;;10459749;28;20390;-63
2022/07/01 21:02:34;;;;;;;;;;;;;;;;;;10497799;28;19924;-63
2022/07/01 21:07:49;;;;;;;;;;;;;;;;;;10494222;28;19925;-63
2022/07/01 21:12:51;;;;;;;;;;;;;;;;;;10506700;28;19931;-63
2022/07/01 21:17:53;;;;;;;;;;;;;;;;;;10505699;28;20303;-63
2022/07/01 21:22:58;;;;;;;;;;;;;;;;;;10506515;28;19932;-63
2022/07/01 21:28:00;;;;;;;;;;;;;;;;;;10505954;28;20018;-62
2022/07/01 21:33:02;;;;;;;;;;;;;;;;;;10504976;28;19924;-62
2022/07/01 21:38:06;;;;;;;;;;;;;;;;;;10504893;28;19925;-63
2022/07/01 21:43:08;;;;;;;;;;;;;;;;;;10505500;28;19929;-63
2022/07/01 21:48:11;;;;;;;;;;;;;;;;;;10475259;28;19925;-63
2022/07/01 21:53:13;;;;;;;;;;;;;;;;;;10463822;28;19932;-63
2022/07/01 21:58:15;;;;;;;;;;;;;;;;;;10463294;28;20284;-63
2022/07/01 22:03:17;;;;;;;;;;;;;;;;;;10463368;28;20360;-63
2022/07/01 22:08:19;;;;;;;;;;;;;;;;;;10463266;28;19929;-63
2022/07/01 22:13:21;;;;;;;;;;;;;;;;;;10484331;28;19924;-63
2022/07/01 22:18:23;;;;;;;;;;;;;;;;;;10502346;28;20364;-63
2022/07/01 22:23:25;;;;;;;;;;;;;;;;;;10504507;28;19928;-63
2022/07/01 22:28:27;;;;;;;;;;;;;;;;;;10502738;28;19928;-63
2022/07/01 22:33:29;;;;;;;;;;;;;;;;;;10502528;28;19936;-63
2022/07/01 22:38:31;;;;;;;;;;;;;;;;;;10477474;28;20288;-62
2022/07/01 22:43:33;;;;;;;;;;;;;;;;;;10500420;28;19925;-62
2022/07/01 22:48:35;;;;;;;;;;;;;;;;;;10502502;28;19924;-62
2022/07/01 22:53:37;;;;;;;;;;;;;;;;;;10502643;28;19924;-63
2022/07/01 22:58:39;;;;;;;;;;;;;;;;;;10502743;28;19928;-63
2022/07/01 23:03:41;;;;;;;;;;;;;;;;;;10501518;28;19924;-62
2022/07/01 23:08:44;;;;;;;;;;;;;;;;;;10500646;28;19978;-63
2022/07/01 23:19:07;;;;;;;;;;;;;;;;;;10501852;28;19931;-63
2022/07/01 23:24:09;;;;;;;;;;;;;;;;;;10500664;28;19928;-63
2022/07/01 23:29:11;;;;;;;;;;;;;;;;;;10501046;28;19932;-63
2022/07/01 23:34:13;;;;;;;;;;;;;;;;;;10490061;28;20032;-63
2022/07/01 23:39:15;;;;;;;;;;;;;;;;;;10459620;28;19932;-63
2022/07/01 23:44:17;;;;;;;;;;;;;;;;;;10459412;28;19931;-63
2022/07/01 23:49:19;;;;;;;;;;;;;;;;;;10459325;28;19935;-63
2022/07/01 23:54:21;;;;;;;;;;;;;;;;;;10458492;28;20319;-63
2022/07/01 23:59:23;;;;;;;;;;;;;;;;;;10458323;28;19924;-63
